Time;durP1;ratioP1;P1;durP2;ratioP2;P2;SDS_P1;SDS_P2;PMS_P1;PMS_P2;Temp;Humidity;BMP_temperature;BMP_pressure;BME280_temperature;BME280_humidity;BME280_pressure;Samples;Min_cycle;Max_cycle;Signal;HPM_P1;HPM_P2
2023/05/10 00:00:25;;;;;;;3.72;0.30;;;;;;;11.62;100.00;96677.41;5050483;28;20075;-61
2023/05/10 00:02:52;;;;;;;1.35;0.15;;;;;;;11.52;100.00;96678.22;5046260;28;20063;-61
2023/05/10 00:05:19;;;;;;;0.25;0.10;;;;;;;11.50;100.00;96674.97;5045745;28;20044;-61
2023/05/10 00:07:45;;;;;;;2.95;0.40;;;;;;;11.47;100.00;96678.25;5049629;28;20503;-61
2023/05/10 00:10:12;;;;;;;2.05;0.20;;;;;;;11.40;100.00;96673.13;5049445;28;20044;-61
2023/05/10 00:12:39;;;;;;;0.75;0.10;;;;;;;11.47;100.00;96667.41;5055798;28;20036;-61
2023/05/10 00:15:06;;;;;;;0.30;0.30;;;;;;;11.37;100.00;96670.13;5039623;28;20622;-61
2023/05/10 00:17:32;;;;;;;0.40;0.20;;;;;;;11.35;100.00;96672.31;5049483;28;20041;-61
2023/05/10 00:19:59;;;;;;;0.38;0.28;;;;;;;11.25;100.00;96673.13;5045902;28;20107;-61
2023/05/10 00:22:25;;;;;;;1.45;0.30;;;;;;;11.24;100.00;96672.31;5054356;28;20045;-61
2023/05/10 00:24:52;;;;;;;1.27;0.22;;;;;;;11.17;100.00;96672.59;5044507;28;20041;-61
2023/05/10 00:27:18;;;;;;;0.73;0.30;;;;;;;11.15;100.00;96674.78;5044121;28;20098;-61
2023/05/10 00:29:45;;;;;;;1.60;0.32;;;;;;;11.18;100.00;96670.72;5052444;28;20044;-61
2023/05/10 00:32:13;;;;;;;0.52;0.30;;;;;;;11.24;100.00;96679.66;5044362;28;20641;-61
2023/05/10 00:34:40;;;;;;;1.38;0.38;;;;;;;11.25;100.00;96660.41;5042535;28;20051;-61
2023/05/10 00:37:06;;;;;;;1.42;0.28;;;;;;;11.29;100.00;96664.19;5048824;28;20064;-61
2023/05/10 00:39:33;;;;;;;0.63;0.35;;;;;;;11.16;100.00;96670.97;5042704;28;20041;-60
2023/05/10 00:42:00;;;;;;;0.60;0.38;;;;;;;11.20;100.00;96663.09;5050291;28;20111;-61
2023/05/10 00:44:27;;;;;;;0.47;0.30;;;;;;;11.12;100.00;96678.03;5040991;28;20106;-60
2023/05/10 00:46:54;;;;;;;0.45;0.40;;;;;;;11.16;100.00;96675.56;5045568;28;20043;-60
2023/05/10 00:49:21;;;;;;;2.97;0.55;;;;;;;11.17;100.00;96685.34;5044126;28;20116;-60
2023/05/10 00:51:48;;;;;;;0.95;0.65;;;;;;;11.19;100.00;96686.69;5041725;28;20056;-61
2023/05/10 00:54:16;;;;;;;0.43;0.43;;;;;;;11.13;100.00;96693.19;5045700;28;20037;-60
2023/05/10 00:56:48;;;;;;;1.27;0.65;;;;;;;11.14;100.00;96691.31;5049085;28;20482;-60
2023/05/10 00:59:16;;;;;;;1.20;0.70;;;;;;;11.13;100.00;96689.69;5046121;28;20053;-60
2023/05/10 01:01:44;;;;;;;1.17;0.65;;;;;;;11.09;100.00;96685.91;5054930;28;20064;-61
2023/05/10 01:04:15;;;;;;;1.27;0.82;;;;;;;11.04;100.00;96690.22;5038455;28;20041;-61
2023/05/10 01:06:42;;;;;;;1.38;0.80;;;;;;;11.05;100.00;96696.44;5041140;28;20052;-60
2023/05/10 01:09:09;;;;;;;1.80;0.73;;;;;;;11.09;100.00;96691.31;5043818;28;20041;-61
2023/05/10 01:11:39;;;;;;;1.70;0.52;;;;;;;11.17;100.00;96691.56;5047083;28;20040;-61
2023/05/10 01:14:06;;;;;;;1.00;0.70;;;;;;;11.22;100.00;96698.06;5040578;28;20049;-60
2023/05/10 01:16:37;;;;;;;1.00;0.77;;;;;;;11.19;100.00;96700.25;5049148;28;20045;-60
2023/05/10 01:19:17;;;;;;;2.00;0.70;;;;;;;11.21;100.00;96693.72;5041242;28;20051;-61
2023/05/10 01:21:53;;;;;;;0.98;0.60;;;;;;;11.31;100.00;96693.72;5049984;28;20640;-61
2023/05/10 01:24:42;;;;;;;0.77;0.50;;;;;;;11.28;100.00;96689.66;5050240;28;20045;-61
2023/05/10 01:27:31;;;;;;;4.13;0.90;;;;;;;11.20;100.00;96698.31;5038381;28;20053;-61
2023/05/10 01:30:12;;;;;;;4.50;0.80;;;;;;;11.17;100.00;96693.47;5045371;28;20052;-61
2023/05/10 01:33:17;;;;;;;2.08;1.23;;;;;;;11.19;100.00;96702.13;5047983;28;20045;-60
2023/05/10 01:35:55;;;;;;;0.85;0.60;;;;;;;11.26;100.00;96699.13;5021716;28;20107;-61
2023/05/10 01:38:21;;;;;;;1.17;0.80;;;;;;;11.25;100.00;96692.09;5047910;28;20051;-60
2023/05/10 01:41:07;;;;;;;0.75;0.57;;;;;;;11.24;100.00;96696.69;5041398;28;20462;-60
2023/05/10 01:43:46;;;;;;;1.75;0.93;;;;;;;11.19;100.00;96697.53;5045512;28;20064;-60
2023/05/10 01:46:17;;;;;;;1.08;0.70;;;;;;;11.12;100.00;96686.16;5043172;28;20106;-60
2023/05/10 01:48:48;;;;;;;2.20;0.85;;;;;;;11.08;100.00;96700.50;5044332;28;20044;-60
2023/05/10 01:51:23;;;;;;;1.20;0.70;;;;;;;11.04;100.00;96692.94;5045166;28;20041;-61
2023/05/10 01:53:54;;;;;;;2.03;0.98;;;;;;;11.03;100.00;96704.03;5049322;28;20070;-60
2023/05/10 01:56:25;;;;;;;1.30;0.80;;;;;;;11.09;100.00;96702.16;5039803;28;20558;-60
2023/05/10 01:58:53;;;;;;;1.17;0.75;;;;;;;11.05;100.00;96699.97;5042163;28;20072;-60
2023/05/10 02:01:21;;;;;;;1.95;0.82;;;;;;;11.03;100.00;96709.47;5050871;28;20041;-60
2023/05/10 02:03:51;;;;;;;1.17;0.70;;;;;;;10.97;100.00;96708.66;5047665;28;20037;-60
2023/05/10 02:06:20;;;;;;;4.47;0.85;;;;;;;10.96;100.00;96711.63;5046977;28;20051;-60
2023/05/10 02:08:49;;;;;;;1.52;0.80;;;;;;;11.00;100.00;96713.53;5043003;28;20052;-60
2023/05/10 02:11:18;;;;;;;1.67;1.08;;;;;;;11.08;100.00;96712.16;5045128;28;20071;-60
2023/05/10 02:13:47;;;;;;;2.53;1.20;;;;;;;10.99;100.00;96714.59;5044424;28;20037;-60
2023/05/10 02:16:16;;;;;;;2.17;0.90;;;;;;;11.03;100.00;96710.25;5049065;28;20514;-60
2023/05/10 02:18:43;;;;;;;2.33;0.77;;;;;;;11.04;100.00;96709.19;5045096;28;20182;-60
2023/05/10 02:21:10;;;;;;;4.00;1.20;;;;;;;11.03;100.00;96707.53;5048900;28;20110;-60
2023/05/10 02:23:39;;;;;;;1.95;1.20;;;;;;;11.12;100.00;96713.25;5044882;28;20036;-60
2023/05/10 02:26:07;;;;;;;2.65;1.30;;;;;;;11.03;100.00;96715.66;5053023;28;20418;-60
2023/05/10 02:28:37;;;;;;;3.25;1.67;;;;;;;10.93;100.00;96724.63;5046915;28;20570;-59
2023/05/10 02:31:05;;;;;;;2.67;1.20;;;;;;;10.98;100.00;96725.72;5043796;28;20036;-62
2023/05/10 02:33:33;;;;;;;3.72;1.40;;;;;;;10.88;100.00;96730.03;5054139;28;20830;-60
2023/05/10 02:36:02;;;;;;;2.78;1.30;;;;;;;10.83;100.00;96732.72;5043773;28;20048;-60
2023/05/10 02:38:31;;;;;;;2.08;1.30;;;;;;;10.84;100.00;96738.97;5039475;28;20037;-60
2023/05/10 02:40:59;;;;;;;2.67;1.80;;;;;;;10.92;100.00;96735.72;5044440;28;20127;-60
2023/05/10 02:43:27;;;;;;;2.53;1.30;;;;;;;10.97;100.00;96741.16;5048962;28;20036;-60
2023/05/10 02:45:55;;;;;;;2.45;1.45;;;;;;;11.04;100.00;96744.41;5041790;28;20045;-60
2023/05/10 02:48:21;;;;;;;2.67;1.50;;;;;;;11.00;100.00;96743.31;5039283;28;20786;-60
2023/05/10 02:50:51;;;;;;;3.25;1.70;;;;;;;10.98;100.00;96741.97;5043762;28;20044;-61
2023/05/10 02:53:31;;;;;;;2.75;1.50;;;;;;;10.94;100.00;96752.50;5047363;28;20040;-61
2023/05/10 02:56:01;;;;;;;8.15;1.90;;;;;;;11.02;100.00;96743.06;5040937;28;20199;-60
2023/05/10 02:58:28;;;;;;;3.50;1.73;;;;;;;10.88;100.00;96757.09;5039710;28;20045;-60
2023/05/10 03:00:54;;;;;;;3.25;1.98;;;;;;;10.94;100.00;96752.50;5042108;28;20025;-60
2023/05/10 03:03:21;;;;;;;3.38;1.88;;;;;;;10.92;100.00;96743.88;5045619;28;20037;-60
2023/05/10 03:05:49;;;;;;;3.83;2.08;;;;;;;11.05;100.00;96746.03;5043316;28;20041;-60
2023/05/10 03:08:16;;;;;;;5.97;1.95;;;;;;;11.10;100.00;96744.41;5052311;28;20048;-60
2023/05/10 03:11:22;;;;;;;3.75;1.45;;;;;;;11.02;100.00;96751.97;5046153;28;20051;-60
2023/05/10 03:14:10;;;;;;;3.38;1.90;;;;;;;11.05;100.00;96765.00;5032893;28;20556;-61
2023/05/10 03:16:46;;;;;;;3.95;2.00;;;;;;;11.05;100.00;96761.47;4990744;28;20130;-60
2023/05/10 03:19:32;;;;;;;4.75;2.28;;;;;;;11.09;100.00;96756.34;5036148;28;20045;-60
2023/05/10 03:22:02;;;;;;;3.53;2.20;;;;;;;11.19;100.00;96768.00;5048056;28;20633;-60
2023/05/10 03:24:35;;;;;;;3.47;1.98;;;;;;;11.08;100.00;96766.34;5056750;28;20098;-60
2023/05/10 03:27:04;;;;;;;5.68;2.05;;;;;;;11.02;100.00;96767.44;5047413;28;20068;-60
2023/05/10 03:29:31;;;;;;;4.35;2.25;;;;;;;11.07;100.00;96764.72;5046591;28;20045;-60
2023/05/10 03:31:59;;;;;;;4.10;2.50;;;;;;;11.13;100.00;96766.34;5044485;28;20033;-60
2023/05/10 03:34:30;;;;;;;6.80;2.28;;;;;;;11.14;100.00;96764.47;5043616;28;20049;-60
2023/05/10 03:36:56;;;;;;;5.53;2.30;;;;;;;11.12;100.00;96772.84;5045727;28;20413;-60
2023/05/10 03:39:24;;;;;;;5.03;2.67;;;;;;;11.12;100.00;96766.59;5046041;28;20086;-60
2023/05/10 03:41:55;;;;;;;4.28;2.20;;;;;;;11.03;100.00;96766.34;5051521;28;20451;-60
2023/05/10 03:44:21;;;;;;;4.20;2.33;;;;;;;11.15;100.00;96763.38;5045971;28;20037;-60
2023/05/10 03:46:48;;;;;;;3.40;1.98;;;;;;;11.12;100.00;96763.91;5039975;28;20053;-60
2023/05/10 03:49:15;;;;;;;4.28;1.75;;;;;;;11.26;100.00;96764.19;5042925;28;20033;-60
2023/05/10 03:51:42;;;;;;;4.30;1.77;;;;;;;11.28;100.00;96775.56;5047191;28;20064;-60
2023/05/10 03:54:08;;;;;;;4.75;1.80;;;;;;;11.25;100.00;96778.81;5050257;28;20040;-60
2023/05/10 03:56:35;;;;;;;5.82;1.88;;;;;;;11.22;100.00;96773.94;5043662;28;20045;-60
2023/05/10 03:59:01;;;;;;;3.28;1.67;;;;;;;11.15;100.00;96776.91;5040988;28;20077;-60
2023/05/10 04:01:29;;;;;;;4.32;2.20;;;;;;;11.11;100.00;96786.66;5044788;28;20033;-60
2023/05/10 04:03:56;;;;;;;3.88;2.28;;;;;;;11.18;100.00;96776.38;5053411;28;20040;-61
2023/05/10 04:06:23;;;;;;;3.17;1.50;;;;;;;11.27;100.00;96780.16;5048182;28;21608;-60
2023/05/10 04:08:50;;;;;;;2.40;1.48;;;;;;;11.32;100.00;96777.44;5044207;28;20128;-60
2023/05/10 04:11:16;;;;;;;4.68;1.48;;;;;;;11.24;100.00;96782.63;5044482;28;20609;-60
2023/05/10 04:13:43;;;;;;;3.70;1.92;;;;;;;11.29;100.00;96782.63;5043142;28;20068;-60
2023/05/10 04:16:09;;;;;;;2.83;1.75;;;;;;;11.34;100.00;96779.06;5042618;28;20036;-60
2023/05/10 04:18:36;;;;;;;2.88;1.50;;;;;;;11.17;100.00;96777.47;5037668;28;20052;-60
2023/05/10 04:21:03;;;;;;;2.33;1.55;;;;;;;11.12;100.00;96783.69;5042821;28;20573;-60
2023/05/10 04:23:29;;;;;;;3.20;1.65;;;;;;;11.22;100.00;96782.06;5043896;28;20532;-60
2023/05/10 04:26:00;;;;;;;3.70;1.38;;;;;;;11.26;100.00;96777.72;5041730;28;20148;-61
2023/05/10 04:28:27;;;;;;;3.80;1.50;;;;;;;11.22;100.00;96792.91;5033849;28;20059;-60
2023/05/10 04:30:59;;;;;;;1.88;1.42;;;;;;;11.30;100.00;96785.06;5047236;28;20075;-61
2023/05/10 04:33:26;;;;;;;2.75;1.77;;;;;;;11.40;100.00;96786.13;5043673;28;20556;-61
2023/05/10 04:35:52;;;;;;;3.78;2.25;;;;;;;11.36;100.00;96783.16;5050914;28;20041;-61
2023/05/10 04:38:19;;;;;;;3.75;1.67;;;;;;;11.31;100.00;96783.97;5052877;28;20068;-61
2023/05/10 04:40:45;;;;;;;3.30;1.80;;;;;;;11.28;100.00;96792.63;5046068;28;20045;-60
2023/05/10 04:43:12;;;;;;;3.72;2.10;;;;;;;11.24;100.00;96788.84;5048108;28;20046;-61
2023/05/10 04:45:38;;;;;;;4.68;1.70;;;;;;;11.27;100.00;96791.00;5042186;28;20049;-60
2023/05/10 04:48:05;;;;;;;9.45;2.00;;;;;;;11.25;100.00;96804.03;5050123;28;20103;-61
2023/05/10 04:50:31;;;;;;;2.95;1.55;;;;;;;11.26;100.00;96805.66;5040559;28;20071;-60
2023/05/10 04:52:58;;;;;;;2.83;1.73;;;;;;;11.34;100.00;96806.19;5040000;28;20041;-61
2023/05/10 04:55:26;;;;;;;3.05;1.73;;;;;;;11.43;100.00;96801.88;5042693;28;20037;-61
2023/05/10 04:57:55;;;;;;;3.08;1.77;;;;;;;11.50;100.00;96802.38;5042729;28;20045;-60
2023/05/10 05:00:21;;;;;;;3.50;1.70;;;;;;;11.39;100.00;96807.00;5041754;28;20088;-61
2023/05/10 05:02:47;;;;;;;3.47;1.55;;;;;;;11.41;100.00;96806.72;5049224;28;20041;-60
2023/05/10 05:05:14;;;;;;;2.80;1.50;;;;;;;11.54;100.00;96805.38;5049148;28;20048;-61
2023/05/10 05:07:41;;;;;;;4.30;1.90;;;;;;;11.63;100.00;96798.31;5041062;28;20374;-60
2023/05/10 05:10:08;;;;;;;3.97;1.95;;;;;;;11.69;100.00;96796.41;5041000;28;20040;-60
2023/05/10 05:12:35;;;;;;;2.88;1.65;;;;;;;11.73;100.00;96802.09;5043563;28;20948;-61
2023/05/10 05:15:02;;;;;;;5.55;1.80;;;;;;;11.70;100.00;96800.75;5042582;28;20493;-61
2023/05/10 05:17:30;;;;;;;4.97;2.20;;;;;;;11.70;100.00;96803.47;5041893;28;20498;-61
2023/05/10 05:19:57;;;;;;;3.90;1.67;;;;;;;11.63;100.00;96811.06;5045386;28;20538;-61
2023/05/10 05:22:27;;;;;;;3.33;1.70;;;;;;;11.70;100.00;96817.03;5042194;28;20041;-61
2023/05/10 05:24:55;;;;;;;4.07;1.63;;;;;;;11.73;100.00;96821.09;5039679;28;20041;-61
2023/05/10 05:27:24;;;;;;;5.40;1.60;;;;;;;11.79;100.00;96820.81;5041511;28;20076;-61
2023/05/10 05:29:52;;;;;;;4.65;1.70;;;;;;;11.66;100.00;96815.94;5044522;28;20044;-61
2023/05/10 05:32:18;;;;;;;7.32;2.25;;;;;;;11.64;100.00;96820.84;5043225;28;20037;-61
2023/05/10 05:34:45;;;;;;;2.95;1.83;;;;;;;11.67;100.00;96822.97;5042475;28;20153;-61
2023/05/10 05:37:15;;;;;;;4.38;2.00;;;;;;;11.60;100.00;96825.19;5041434;28;20645;-61
2023/05/10 05:39:43;;;;;;;190.15;43.65;;;;;;;11.83;100.00;96819.16;5039696;28;20120;-61
2023/05/10 05:42:10;;;;;;;3.78;2.15;;;;;;;11.86;100.00;96820.50;5050414;28;20045;-61
2023/05/10 05:44:37;;;;;;;5.82;2.42;;;;;;;11.84;100.00;96823.50;5042782;28;20563;-61
2023/05/10 05:47:03;;;;;;;4.60;2.10;;;;;;;11.86;100.00;96817.81;5041816;28;20550;-60
2023/05/10 05:49:30;;;;;;;3.13;1.85;;;;;;;11.92;100.00;96821.31;5042483;28;20076;-61
2023/05/10 05:52:03;;;;;;;3.78;2.40;;;;;;;11.79;100.00;96817.28;5050308;28;20040;-61
2023/05/10 05:54:31;;;;;;;2.70;1.63;;;;;;;12.03;100.00;96822.94;5040087;28;20060;-61
2023/05/10 05:56:58;;;;;;;13.73;4.13;;;;;;;11.96;100.00;96825.94;5043060;28;20039;-61
2023/05/10 05:59:27;;;;;;;3.65;2.00;;;;;;;11.98;100.00;96828.38;5038382;28;20147;-61
2023/05/10 06:01:53;;;;;;;3.95;1.92;;;;;;;12.03;100.00;96825.66;5045502;28;20048;-61
2023/05/10 06:04:20;;;;;;;8.05;1.88;;;;;;;12.06;100.00;96837.88;5042796;28;20059;-61
2023/05/10 06:06:47;;;;;;;3.92;1.70;;;;;;;12.10;100.00;96845.19;5047828;28;20044;-61
2023/05/10 06:09:13;;;;;;;3.25;1.77;;;;;;;12.17;100.00;96841.38;5039651;28;20041;-61
2023/05/10 06:11:40;;;;;;;3.38;1.90;;;;;;;12.27;100.00;96835.13;5042039;28;20037;-61
2023/05/10 06:14:07;;;;;;;5.47;2.10;;;;;;;12.36;100.00;96836.97;5043257;28;20799;-61
2023/05/10 06:16:34;;;;;;;3.72;1.67;;;;;;;12.15;100.00;96841.66;5043923;28;20123;-61
2023/05/10 06:19:02;;;;;;;3.45;1.60;;;;;;;12.19;100.00;96841.91;5042563;28;20408;-61
2023/05/10 06:21:28;;;;;;;2.58;1.50;;;;;;;12.36;100.00;96836.97;5040308;28;20045;-61
2023/05/10 06:23:55;;;;;;;3.92;1.80;;;;;;;12.35;100.00;96842.69;5041976;28;20051;-61
2023/05/10 06:26:21;;;;;;;4.38;1.80;;;;;;;12.40;100.00;96845.38;5045943;28;20059;-61
2023/05/10 06:28:48;;;;;;;4.85;1.67;;;;;;;12.65;100.00;96849.09;5039136;28;20730;-61
2023/05/10 06:31:14;;;;;;;4.70;1.63;;;;;;;12.68;100.00;96847.72;5045677;28;20095;-61
2023/05/10 06:33:41;;;;;;;4.40;1.95;;;;;;;12.78;100.00;96855.03;5043081;28;20076;-61
2023/05/10 06:36:08;;;;;;;5.65;1.70;;;;;;;12.68;100.00;96850.44;5041559;28;20041;-61
2023/05/10 06:38:34;;;;;;;4.25;2.28;;;;;;;12.56;100.00;96858.91;5043443;28;20574;-61
2023/05/10 06:41:00;;;;;;;3.53;2.03;;;;;;;12.76;100.00;96860.72;5043125;28;20709;-61
2023/05/10 06:43:28;;;;;;;3.13;1.60;;;;;;;12.78;100.00;96858.53;5050574;28;20068;-61
2023/05/10 06:45:55;;;;;;;2.97;1.50;;;;;;;12.92;100.00;96860.63;5041933;28;20125;-61
2023/05/10 06:48:22;;;;;;;2.47;1.30;;;;;;;13.20;100.00;96856.41;5042215;28;20045;-61
2023/05/10 06:50:49;;;;;;;3.63;1.52;;;;;;;13.14;100.00;96855.63;5047546;28;20045;-61
2023/05/10 06:53:15;;;;;;;4.78;1.80;;;;;;;13.02;100.00;96855.16;5044701;28;20037;-61
2023/05/10 06:55:42;;;;;;;3.30;1.80;;;;;;;13.12;100.00;96865.16;5047349;28;20518;-61
2023/05/10 06:58:08;;;;;;;3.83;1.30;;;;;;;12.94;100.00;96867.41;5040508;28;20559;-61
2023/05/10 07:00:36;;;;;;;4.43;1.40;;;;;;;13.08;100.00;96866.81;5041546;28;20045;-61
2023/05/10 07:03:03;;;;;;;4.63;1.38;;;;;;;13.00;100.00;96866.31;5045378;28;20040;-61
2023/05/10 07:05:30;;;;;;;2.72;1.15;;;;;;;13.04;100.00;96861.13;5044553;28;20064;-61
2023/05/10 07:07:57;;;;;;;2.42;1.13;;;;;;;12.96;100.00;96859.81;5041484;28;20056;-61
2023/05/10 07:10:23;;;;;;;1.95;1.10;;;;;;;13.21;100.00;96859.94;5043872;28;20071;-61
2023/05/10 07:12:50;;;;;;;1.77;1.00;;;;;;;13.36;100.00;96861.75;5054273;28;20556;-61
2023/05/10 07:15:16;;;;;;;1.77;1.10;;;;;;;13.10;100.00;96862.72;5050769;28;20040;-63
2023/05/10 07:17:43;;;;;;;1.40;0.80;;;;;;;12.97;100.00;96871.50;5047594;28;20072;-63
2023/05/10 07:20:12;;;;;;;1.55;1.00;;;;;;;13.10;100.00;96861.91;5046122;28;20041;-61
2023/05/10 07:22:38;;;;;;;2.00;0.90;;;;;;;12.89;100.00;96870.16;5044752;28;20496;-63
2023/05/10 07:25:05;;;;;;;1.27;0.70;;;;;;;12.92;100.00;96874.22;5043183;28;20041;-61
2023/05/10 07:27:32;;;;;;;1.02;0.60;;;;;;;13.04;100.00;96879.34;5046034;28;20037;-61
2023/05/10 07:29:58;;;;;;;1.63;0.60;;;;;;;12.93;100.00;96881.31;5044329;28;20048;-61
2023/05/10 07:32:25;;;;;;;2.70;0.75;;;;;;;13.10;100.00;96884.47;5042295;28;20035;-61
2023/05/10 07:34:52;;;;;;;0.77;0.50;;;;;;;13.21;100.00;96876.25;5047974;28;20618;-61
2023/05/10 07:37:18;;;;;;;0.93;0.50;;;;;;;13.36;100.00;96878.06;5046078;28;20040;-61
2023/05/10 07:39:45;;;;;;;0.85;0.40;;;;;;;13.29;97.42;96881.09;5044319;28;20461;-61
2023/05/10 07:42:11;;;;;;;1.27;0.38;;;;;;;13.39;97.80;96877.50;5049973;28;20029;-61
2023/05/10 07:44:38;;;;;;;1.40;0.55;;;;;;;13.30;95.99;96880.00;5041819;28;20048;-61
2023/05/10 07:47:04;;;;;;;1.20;0.60;;;;;;;13.46;98.80;96886.16;5039855;28;20056;-61
2023/05/10 07:49:31;;;;;;;2.97;0.50;;;;;;;13.33;98.63;96884.03;5044887;28;20676;-61
2023/05/10 07:51:57;;;;;;;2.10;0.60;;;;;;;13.40;100.00;96884.56;5046826;28;20684;-61
2023/05/10 07:54:23;;;;;;;0.55;0.38;;;;;;;13.30;97.17;96887.34;5052858;28;20040;-61
2023/05/10 07:56:50;;;;;;;0.85;0.50;;;;;;;13.30;96.22;96882.72;5041258;28;20110;-61
2023/05/10 07:59:17;;;;;;;1.23;0.45;;;;;;;13.34;97.62;96885.69;5036952;28;20051;-63
2023/05/10 08:01:44;;;;;;;1.75;1.20;;;;;;;13.44;97.02;96892.94;5036903;28;20080;-62
2023/05/10 08:04:11;;;;;;;1.65;0.47;;;;;;;13.83;94.16;96894.06;5043017;28;20076;-62
2023/05/10 08:06:38;;;;;;;1.73;0.50;;;;;;;13.75;94.38;96895.50;5041960;28;20504;-62
2023/05/10 08:09:05;;;;;;;1.80;0.40;;;;;;;13.79;95.80;96888.38;5037986;28;20053;-62
2023/05/10 08:11:31;;;;;;;1.55;0.32;;;;;;;13.74;92.12;96888.41;5050557;28;20067;-61
2023/05/10 08:14:00;;;;;;;1.88;0.30;;;;;;;13.69;92.98;96893.88;5042838;28;20090;-62
2023/05/10 08:16:27;;;;;;;0.60;0.40;;;;;;;13.36;93.54;96900.63;5044789;28;20060;-61
2023/05/10 08:18:55;;;;;;;1.65;0.40;;;;;;;13.32;93.28;96909.63;5040841;28;20124;-62
2023/05/10 08:21:21;;;;;;;1.92;0.40;;;;;;;13.21;94.80;96906.16;5040010;28;20458;-61
2023/05/10 08:23:48;;;;;;;0.93;0.50;;;;;;;13.19;95.93;96909.16;5048331;28;20104;-60
2023/05/10 08:26:15;;;;;;;1.02;0.47;;;;;;;13.23;95.50;96903.97;5044158;28;20601;-62
2023/05/10 08:28:41;;;;;;;0.55;0.40;;;;;;;13.48;95.94;96900.31;5048975;28;20125;-62
2023/05/10 08:31:08;;;;;;;0.95;0.47;;;;;;;13.60;95.78;96910.81;5049945;28;20044;-62
2023/05/10 08:33:34;;;;;;;1.98;0.93;;;;;;;13.34;93.58;96924.56;5061965;28;20134;-61
2023/05/10 08:36:01;;;;;;;0.70;0.40;;;;;;;13.70;93.65;96917.28;5045213;28;20132;-62
2023/05/10 08:38:27;;;;;;;1.30;0.43;;;;;;;13.78;93.14;96913.94;5053557;28;20071;-61
2023/05/10 08:40:56;;;;;;;3.17;0.40;;;;;;;13.84;93.01;96912.00;5053527;28;20044;-61
2023/05/10 08:43:26;;;;;;;1.15;0.30;;;;;;;14.11;92.47;96913.44;5052420;28;20045;-61
2023/05/10 08:45:55;;;;;;;1.55;0.50;;;;;;;14.20;90.17;96905.44;5034643;28;20045;-60
2023/05/10 08:48:23;;;;;;;1.00;0.50;;;;;;;14.24;86.17;96922.81;5036404;28;20091;-61
2023/05/10 08:50:54;;;;;;;2.80;0.30;;;;;;;14.03;88.90;96918.38;5040609;28;20037;-61
2023/05/10 08:53:23;;;;;;;0.40;0.30;;;;;;;14.09;88.44;96921.88;5043559;28;20029;-61
2023/05/10 08:55:50;;;;;;;1.80;0.60;;;;;;;14.15;89.61;96926.16;5054027;28;20085;-61
2023/05/10 08:58:19;;;;;;;0.82;0.40;;;;;;;14.49;86.55;96918.22;5046365;28;20532;-61
2023/05/10 09:00:48;;;;;;;1.15;0.40;;;;;;;14.37;85.56;96930.31;5044024;28;20041;-61
2023/05/10 09:03:15;;;;;;;1.52;0.40;;;;;;;14.36;86.60;96917.81;5044604;28;20112;-61
2023/05/10 09:05:42;;;;;;;0.55;0.32;;;;;;;14.36;87.07;96920.53;5054764;28;20124;-61
2023/05/10 09:08:08;;;;;;;2.00;0.50;;;;;;;14.11;88.43;96922.38;5043216;28;20045;-61
2023/05/10 09:10:35;;;;;;;1.50;0.40;;;;;;;13.85;87.91;96932.66;5043781;28;20048;-62
2023/05/10 09:13:02;;;;;;;2.15;0.30;;;;;;;13.59;89.79;96925.53;5040971;28;20049;-61
2023/05/10 09:15:30;;;;;;;0.75;0.60;;;;;;;13.66;90.83;96941.53;5036220;28;20045;-61
2023/05/10 09:17:59;;;;;;;2.75;0.68;;;;;;;13.56;93.09;96933.44;5044604;28;20053;-61
2023/05/10 09:20:26;;;;;;;1.02;0.52;;;;;;;13.55;91.58;96940.78;5043847;28;20048;-61
2023/05/10 09:22:53;;;;;;;3.03;0.70;;;;;;;13.35;93.39;96945.22;5044920;28;20119;-61
2023/05/10 09:25:19;;;;;;;1.30;0.50;;;;;;;13.31;93.33;96946.06;5053421;28;20048;-61
2023/05/10 09:27:47;;;;;;;1.27;0.45;;;;;;;13.19;96.16;96944.47;5046998;28;20102;-62
2023/05/10 09:30:24;;;;;;;2.20;0.50;;;;;;;13.20;96.59;96948.81;5043734;28;20070;-62
2023/05/10 09:32:51;;;;;;;1.02;0.50;;;;;;;13.35;96.40;96955.28;5039320;28;20033;-62
2023/05/10 09:35:23;;;;;;;0.40;0.40;;;;;;;13.51;97.51;96956.84;5044313;28;20715;-61
2023/05/10 09:37:56;;;;;;;1.58;0.43;;;;;;;13.72;93.53;96954.00;5042690;28;20040;-61
2023/05/10 09:40:24;;;;;;;1.85;0.60;;;;;;;14.01;92.11;96942.34;5039208;28;20056;-62
2023/05/10 09:42:59;;;;;;;1.10;0.50;;;;;;;14.15;91.08;96955.28;5039515;28;20079;-62
2023/05/10 09:45:28;;;;;;;1.90;0.45;;;;;;;14.24;87.51;96953.59;5042666;28;20049;-62
2023/05/10 09:47:55;;;;;;;1.35;0.40;;;;;;;14.38;90.01;96947.47;5039779;28;20628;-62
2023/05/10 09:50:23;;;;;;;2.55;0.65;;;;;;;14.82;87.36;96953.88;5042018;28;20136;-62
2023/05/10 09:53:01;;;;;;;0.55;0.40;;;;;;;15.00;82.01;96959.66;5046679;28;20471;-62
2023/05/10 09:55:41;;;;;;;2.20;0.40;;;;;;;15.12;84.84;96957.31;5040729;28;20048;-62
2023/05/10 09:58:10;;;;;;;0.65;0.40;;;;;;;14.82;85.63;96959.31;5039385;28;20092;-62
2023/05/10 10:00:39;;;;;;;2.33;0.30;;;;;;;14.95;85.19;96961.34;5041688;28;20090;-62
2023/05/10 10:03:12;;;;;;;1.55;0.50;;;;;;;14.73;86.71;96964.56;5038717;28;20579;-62
2023/05/10 10:05:40;;;;;;;1.67;0.40;;;;;;;14.03;89.93;96961.94;5046053;28;20036;-62
2023/05/10 10:08:07;;;;;;;0.55;0.30;;;;;;;13.62;94.18;96973.09;5044366;28;20045;-62
2023/05/10 10:10:34;;;;;;;1.20;0.52;;;;;;;13.95;92.36;96973.44;5043055;28;20049;-62
2023/05/10 10:13:01;;;;;;;0.70;0.47;;;;;;;13.95;94.05;96970.72;5049290;28;20079;-62
2023/05/10 10:15:28;;;;;;;0.95;0.60;;;;;;;14.35;90.76;96978.00;5040354;28;20502;-61
2023/05/10 10:17:54;;;;;;;1.35;0.40;;;;;;;13.87;94.27;96974.84;5044620;28;20137;-61
2023/05/10 10:20:22;;;;;;;2.13;0.50;;;;;;;14.06;91.43;96966.00;5049552;28;20064;-61
2023/05/10 10:22:49;;;;;;;2.17;0.50;;;;;;;13.88;89.37;96971.03;5043740;28;20040;-62
2023/05/10 10:25:18;;;;;;;1.15;0.50;;;;;;;13.89;90.90;96969.09;5038301;28;20535;-64
2023/05/10 10:28:03;;;;;;;0.68;0.60;;;;;;;13.78;89.69;96971.09;5044024;28;20044;-61
2023/05/10 10:30:45;;;;;;;0.47;0.25;;;;;;;14.02;90.43;96971.22;5043525;28;20045;-62
2023/05/10 10:33:17;;;;;;;1.10;0.50;;;;;;;14.22;87.73;96963.16;5043860;28;20415;-62
2023/05/10 10:35:55;;;;;;;1.92;0.40;;;;;;;14.53;84.22;96971.03;5044008;28;20051;-61
2023/05/10 10:38:22;;;;;;;0.20;0.20;;;;;;;14.70;83.28;96963.22;5043347;28;20120;-61
2023/05/10 10:41:02;;;;;;;2.22;0.40;;;;;;;14.50;84.28;96968.88;5045259;28;20040;-61
2023/05/10 10:43:29;;;;;;;1.02;0.45;;;;;;;14.34;82.29;96966.28;5044478;28;20044;-61
2023/05/10 10:46:18;;;;;;;5.03;0.50;;;;;;;14.44;83.82;96966.19;5045960;28;20478;-61
2023/05/10 10:49:08;;;;;;;0.95;0.35;;;;;;;14.53;83.02;96969.09;5052983;28;20117;-61
2023/05/10 10:51:39;;;;;;;1.48;0.50;;;;;;;14.74;79.41;96957.19;5041366;28;20045;-62
2023/05/10 10:54:10;;;;;;;0.75;0.40;;;;;;;14.98;78.52;96948.22;5045827;28;20742;-61
2023/05/10 10:56:37;;;;;;;1.33;0.50;;;;;;;14.56;75.03;96941.28;5051093;28;20606;-62
2023/05/10 10:59:03;;;;;;;1.15;0.50;;;;;;;14.27;77.98;96965.81;5055377;28;20049;-61
2023/05/10 11:01:36;;;;;;;2.45;1.02;;;;;;;14.35;78.03;96956.22;5046185;28;20396;-62
2023/05/10 11:04:03;;;;;;;2.30;0.50;;;;;;;14.75;75.33;96959.63;5051285;28;20041;-62
2023/05/10 11:06:35;;;;;;;0.52;0.40;;;;;;;14.60;74.71;96960.63;5043774;28;20695;-62
2023/05/10 11:09:11;;;;;;;2.03;0.50;;;;;;;14.96;75.00;96951.22;5052888;28;20041;-62
2023/05/10 11:11:58;;;;;;;2.75;0.90;;;;;;;14.60;71.17;96984.31;5046770;28;20048;-62
2023/05/10 11:14:25;;;;;;;1.92;0.73;;;;;;;14.62;70.94;96965.75;5043819;28;20029;-62
2023/05/10 11:16:51;;;;;;;2.95;0.77;;;;;;;14.59;71.95;96980.75;5046004;28;20119;-62
2023/05/10 11:19:19;;;;;;;3.83;0.50;;;;;;;14.54;71.55;96975.38;5046452;28;20440;-62
2023/05/10 11:22:05;;;;;;;1.70;0.70;;;;;;;14.86;72.36;96973.16;5053015;28;20102;-62
2023/05/10 11:24:33;;;;;;;3.47;0.70;;;;;;;14.38;77.64;96972.78;5040941;28;20132;-62
2023/05/10 11:27:00;;;;;;;3.20;0.70;;;;;;;14.64;79.77;96975.28;5044305;28;20527;-62
2023/05/10 11:29:27;;;;;;;2.42;0.82;;;;;;;14.32;79.97;96968.50;5045605;28;20064;-61
2023/05/10 11:31:57;;;;;;;1.38;0.60;;;;;;;14.09;78.69;96970.06;5045300;28;20049;-62
2023/05/10 11:34:30;;;;;;;1.55;0.88;;;;;;;14.24;79.29;96974.56;5049975;28;20083;-61